createdAt,value
2023-01-25T00:01:12.891Z,22.05
2023-01-25T00:03:42.666Z,21.17
2023-01-25T00:06:12.074Z,21.38
2023-01-25T00:08:42.368Z,21.00
2023-01-25T00:11:13.112Z,23.00
2023-01-25T00:13:47.755Z,22.60
2023-01-25T00:16:23.850Z,22.55
2023-01-25T00:18:58.975Z,22.08
2023-01-25T00:21:28.745Z,19.40
2023-01-25T00:23:57.883Z,21.23
2023-01-25T00:26:35.870Z,18.45
2023-01-25T00:29:06.747Z,20.60
2023-01-25T00:31:50.331Z,21.02
2023-01-25T00:34:42.958Z,20.42
2023-01-25T00:37:18.636Z,20.45
2023-01-25T00:39:55.501Z,19.55
2023-01-25T00:42:25.187Z,20.35
2023-01-25T00:45:06.296Z,21.10
2023-01-25T00:47:36.144Z,20.63
2023-01-25T00:50:10.966Z,22.58
2023-01-25T00:52:44.737Z,18.38
2023-01-25T00:55:14.587Z,21.98
2023-01-25T00:57:53.284Z,19.73
2023-01-25T01:00:28.691Z,20.38
2023-01-25T01:03:04.561Z,19.35
2023-01-25T01:05:44.296Z,20.40
2023-01-25T01:08:17.850Z,19.60
2023-01-25T01:10:53.133Z,17.10
2023-01-25T01:13:30.969Z,18.83
2023-01-25T01:16:08.664Z,19.50
2023-01-25T01:18:44.992Z,21.13
2023-01-25T01:21:15.719Z,20.23
2023-01-25T01:23:48.855Z,23.27
2023-01-25T01:26:20.547Z,21.55
2023-01-25T01:28:52.509Z,22.60
2023-01-25T01:31:24.297Z,22.13
2023-01-25T01:34:19.720Z,20.90
2023-01-25T01:36:49.184Z,19.48
2023-01-25T01:39:19.221Z,20.52
2023-01-25T01:41:56.584Z,23.60
2023-01-25T01:44:56.051Z,21.80
2023-01-25T01:47:35.667Z,19.88
2023-01-25T01:50:18.171Z,19.48
2023-01-25T01:52:57.448Z,21.00
2023-01-25T01:55:27.045Z,19.45
2023-01-25T01:58:14.279Z,23.35
2023-01-25T02:00:43.980Z,19.15
2023-01-25T02:03:17.119Z,19.40
2023-01-25T02:05:55.161Z,18.42
2023-01-25T02:08:30.173Z,17.95
2023-01-25T02:11:08.033Z,20.10
2023-01-25T02:13:38.295Z,19.92
2023-01-25T02:16:18.646Z,19.13
2023-01-25T02:18:50.056Z,16.90
2023-01-25T02:21:20.200Z,19.60
2023-01-25T02:23:59.588Z,20.00
2023-01-25T02:26:33.448Z,23.05
2023-01-25T02:29:11.164Z,21.63
2023-01-25T02:31:40.639Z,23.25
2023-01-25T02:34:16.269Z,22.35
2023-01-25T02:36:48.502Z,19.70
2023-01-25T02:39:20.711Z,21.10
2023-01-25T02:41:56.753Z,22.50
2023-01-25T02:47:18.224Z,19.75
2023-01-25T02:49:48.795Z,19.10
2023-01-25T02:52:21.179Z,21.88
2023-01-25T02:55:01.257Z,18.33
2023-01-25T02:57:33.331Z,18.30
2023-01-25T03:00:04.396Z,21.33
2023-01-25T03:05:26.103Z,19.05
2023-01-25T03:07:55.822Z,15.70
2023-01-25T03:13:18.730Z,19.77
2023-01-25T03:15:48.771Z,18.00
2023-01-25T03:18:24.665Z,19.58
2023-01-25T03:20:54.725Z,21.50
2023-01-25T03:23:30.234Z,22.63
2023-01-25T03:26:16.556Z,19.50
2023-01-25T03:29:13.745Z,21.23
2023-01-25T03:31:48.014Z,17.67
2023-01-25T03:36:54.790Z,18.45
2023-01-25T03:39:26.917Z,19.80
2023-01-25T03:42:01.570Z,17.48
2023-01-25T03:44:34.714Z,19.60
2023-01-25T03:47:26.893Z,21.73
2023-01-25T03:49:57.309Z,19.48
2023-01-25T03:52:29.365Z,23.45
2023-01-25T03:55:00.903Z,22.35
2023-01-25T03:57:38.028Z,23.98
2023-01-25T04:00:14.012Z,21.40
2023-01-25T04:02:59.574Z,21.23
2023-01-25T04:05:35.755Z,20.83
2023-01-25T04:08:05.682Z,19.58
2023-01-25T04:10:40.536Z,25.17
2023-01-25T04:13:16.383Z,21.65
2023-01-25T04:16:01.310Z,22.45
2023-01-25T04:18:50.526Z,19.45
2023-01-25T04:21:26.354Z,18.40
2023-01-25T04:24:01.724Z,21.73
2023-01-25T04:26:35.141Z,22.60
2023-01-25T04:29:08.408Z,25.23
2023-01-25T04:31:45.058Z,29.00
2023-01-25T04:34:27.899Z,25.73
2023-01-25T04:37:06.947Z,31.00
2023-01-25T04:39:44.656Z,28.10
2023-01-25T04:42:20.394Z,29.23
2023-01-25T04:45:05.404Z,25.33
2023-01-25T04:47:37.373Z,27.20
2023-01-25T04:50:15.788Z,30.63
2023-01-25T04:52:51.585Z,29.75
2023-01-25T04:55:23.757Z,30.48
2023-01-25T04:57:56.810Z,34.58
2023-01-25T05:00:34.438Z,29.17
2023-01-25T05:03:11.147Z,29.70
2023-01-25T05:05:53.098Z,31.33
2023-01-25T05:08:27.463Z,28.88
2023-01-25T05:11:05.738Z,25.90
2023-01-25T05:13:38.455Z,30.23
2023-01-25T05:16:15.125Z,29.55
2023-01-25T05:18:49.802Z,29.00
2023-01-25T05:21:42.997Z,29.70
2023-01-25T05:24:18.856Z,29.30
2023-01-25T05:27:06.186Z,29.88
2023-01-25T05:30:03.709Z,29.98
2023-01-25T05:32:43.837Z,28.92
2023-01-25T05:35:17.146Z,29.58
2023-01-25T05:37:47.085Z,30.13
2023-01-25T05:40:23.240Z,33.83
2023-01-25T05:42:58.204Z,32.80
2023-01-25T05:45:30.102Z,30.23
2023-01-25T05:48:02.203Z,20.10
2023-01-25T05:50:36.979Z,31.75
2023-01-25T05:53:10.010Z,29.17
2023-01-25T05:55:41.314Z,28.88
2023-01-25T05:58:15.531Z,33.30
2023-01-25T06:00:47.907Z,32.22
2023-01-25T06:03:36.976Z,31.73
2023-01-25T06:06:10.081Z,30.90
2023-01-25T06:08:47.736Z,33.72
2023-01-25T06:11:25.242Z,37.90
2023-01-25T06:13:56.656Z,34.83
2023-01-25T06:16:28.608Z,33.42
2023-01-25T06:19:19.607Z,30.83
2023-01-25T06:22:21.776Z,36.10
2023-01-25T06:24:51.052Z,38.13
2023-01-25T06:27:21.467Z,36.35
2023-01-25T06:29:50.819Z,33.10
2023-01-25T06:32:20.660Z,31.90
2023-01-25T06:34:54.985Z,35.30
2023-01-25T06:37:35.645Z,34.65
2023-01-25T06:40:14.529Z,38.20
2023-01-25T06:42:46.779Z,34.33
2023-01-25T06:45:20.251Z,34.00
2023-01-25T06:47:52.260Z,33.55
2023-01-25T06:50:24.441Z,37.85
2023-01-25T06:52:55.894Z,37.45
2023-01-25T06:55:28.381Z,33.72
2023-01-25T06:58:02.439Z,34.90
2023-01-25T07:00:33.170Z,32.90
2023-01-25T07:03:06.165Z,31.67
2023-01-25T07:05:39.657Z,42.03
2023-01-25T07:08:14.466Z,38.72
2023-01-25T07:10:46.764Z,36.15
2023-01-25T07:13:16.477Z,34.67
2023-01-25T07:15:53.839Z,37.33
2023-01-25T07:18:23.498Z,35.55
2023-01-25T07:20:55.727Z,35.70
2023-01-25T07:26:19.966Z,42.35
2023-01-25T07:29:00.391Z,43.05
2023-01-25T07:31:33.225Z,39.33
2023-01-25T07:34:05.030Z,44.05
2023-01-25T07:36:46.420Z,45.60
2023-01-25T07:39:17.269Z,44.25
2023-01-25T07:41:50.290Z,48.60
2023-01-25T07:44:23.232Z,35.38
2023-01-25T07:47:02.208Z,35.90
2023-01-25T07:49:34.876Z,37.08
2023-01-25T07:52:04.329Z,37.85
2023-01-25T07:54:35.896Z,40.00
2023-01-25T07:57:05.637Z,41.92
2023-01-25T07:59:35.560Z,45.00
2023-01-25T08:02:28.036Z,41.47
2023-01-25T08:04:57.539Z,41.88
2023-01-25T08:07:29.990Z,44.28
2023-01-25T08:10:01.113Z,43.63
2023-01-25T08:12:39.419Z,49.55
2023-01-25T08:15:16.115Z,46.45
2023-01-25T08:17:48.630Z,46.00
2023-01-25T08:20:19.304Z,47.17
2023-01-25T08:22:49.866Z,40.03
2023-01-25T08:25:24.268Z,40.63
2023-01-25T08:27:57.851Z,42.10
2023-01-25T08:30:32.511Z,44.33
2023-01-25T08:33:03.112Z,44.35
2023-01-25T08:35:36.887Z,38.17
2023-01-25T08:38:10.683Z,39.35
2023-01-25T08:40:43.123Z,39.40
2023-01-25T08:43:14.267Z,34.13
2023-01-25T08:45:49.673Z,38.65
2023-01-25T08:48:19.464Z,34.38
2023-01-25T08:50:49.192Z,30.70
2023-01-25T08:56:12.928Z,33.80
2023-01-25T08:58:46.260Z,32.40
2023-01-25T09:01:16.495Z,34.53
2023-01-25T09:03:48.560Z,35.42
2023-01-25T09:06:19.945Z,39.08
2023-01-25T09:08:50.035Z,34.42
2023-01-25T09:11:27.322Z,34.38
2023-01-25T09:14:01.222Z,36.72
2023-01-25T09:16:34.768Z,41.00
2023-01-25T09:19:06.314Z,45.50
2023-01-25T09:21:42.298Z,39.20
2023-01-25T09:26:59.639Z,39.85
2023-01-25T09:29:29.457Z,35.80
2023-01-25T09:32:10.761Z,39.20
2023-01-25T09:34:55.186Z,34.78
2023-01-25T09:37:27.134Z,34.55
2023-01-25T09:40:01.796Z,36.55
2023-01-25T09:42:57.348Z,36.47
2023-01-25T09:45:41.709Z,42.20
2023-01-25T09:48:17.831Z,37.63
2023-01-25T09:51:01.341Z,41.72
2023-01-25T09:53:38.098Z,38.63
2023-01-25T09:56:17.912Z,40.28
2023-01-25T09:59:01.357Z,40.75
2023-01-25T10:01:41.406Z,38.97
2023-01-25T10:04:29.040Z,44.22
2023-01-25T10:07:01.731Z,47.15
2023-01-25T10:09:48.501Z,44.90
2023-01-25T10:12:27.340Z,45.80
2023-01-25T10:15:02.513Z,44.10
2023-01-25T10:18:04.481Z,45.90
2023-01-25T10:21:08.500Z,45.33
2023-01-25T10:23:52.803Z,43.65
2023-01-25T10:26:27.438Z,42.03
2023-01-25T10:29:05.262Z,38.65
2023-01-25T10:31:54.994Z,39.45
2023-01-25T10:34:33.182Z,33.17
2023-01-25T10:37:09.245Z,40.20
2023-01-25T10:39:47.255Z,32.60
2023-01-25T10:42:22.901Z,37.03
2023-01-25T10:44:57.002Z,38.50
2023-01-25T10:47:44.426Z,32.45
2023-01-25T10:50:33.824Z,36.13
2023-01-25T10:53:06.507Z,34.20
2023-01-25T10:56:08.610Z,49.20
2023-01-25T10:59:10.420Z,31.33
2023-01-25T11:01:47.483Z,27.33
2023-01-25T11:04:38.699Z,30.63
2023-01-25T11:07:19.678Z,33.55
2023-01-25T11:09:58.425Z,29.30
2023-01-25T11:12:31.272Z,31.85
2023-01-25T11:15:26.714Z,30.83
2023-01-25T11:18:10.108Z,28.87
2023-01-25T11:20:55.068Z,35.08
2023-01-25T11:24:12.254Z,25.60
2023-01-25T11:27:05.237Z,25.48
2023-01-25T11:29:56.901Z,22.98
2023-01-25T11:32:54.170Z,20.95
2023-01-25T11:35:54.643Z,21.65
2023-01-25T11:39:03.621Z,21.90
2023-01-25T11:41:46.320Z,18.70
2023-01-25T11:44:29.586Z,20.55
2023-01-25T11:47:10.003Z,23.98
2023-01-25T11:49:48.515Z,18.75
2023-01-25T11:52:33.808Z,15.15
2023-01-25T11:55:27.585Z,11.70
2023-01-25T11:58:29.388Z,9.02
2023-01-25T12:01:46.502Z,12.20
2023-01-25T12:04:38.595Z,13.77
2023-01-25T12:07:15.973Z,11.63
2023-01-25T12:10:45.939Z,8.38
2023-01-25T12:13:54.130Z,8.75
2023-01-25T12:16:45.729Z,7.18
2023-01-25T12:22:22.249Z,6.00
2023-01-25T12:25:24.332Z,9.02
2023-01-25T12:28:21.817Z,5.40
2023-01-25T12:31:04.151Z,3.25
2023-01-25T12:33:43.040Z,4.40
2023-01-25T12:36:27.259Z,6.32
2023-01-25T12:39:09.709Z,5.07
2023-01-25T12:41:43.579Z,3.17
2023-01-25T12:44:28.587Z,3.22
2023-01-25T12:49:43.702Z,2.53
2023-01-25T12:52:29.217Z,2.35
2023-01-25T12:55:12.768Z,3.65
2023-01-25T12:57:53.764Z,2.60
2023-01-25T13:00:27.973Z,4.38
2023-01-25T13:03:16.219Z,4.03
2023-01-25T13:05:56.083Z,5.68
2023-01-25T13:08:41.638Z,6.80
2023-01-25T13:11:27.860Z,7.75
2023-01-25T13:14:24.295Z,8.50
2023-01-25T13:17:09.720Z,7.93
2023-01-25T13:19:47.648Z,8.98
2023-01-25T13:22:44.006Z,14.85
2023-01-25T13:25:26.037Z,14.45
2023-01-25T13:28:15.443Z,14.90
2023-01-25T13:31:02.604Z,17.05
2023-01-25T13:33:34.892Z,14.77
2023-01-25T13:36:28.846Z,15.93
2023-01-25T13:39:08.291Z,20.02
2023-01-25T13:41:37.906Z,19.98
2023-01-25T13:44:23.058Z,17.25
2023-01-25T13:46:56.057Z,19.17
2023-01-25T13:49:32.868Z,21.15
2023-01-25T13:52:16.793Z,18.00
2023-01-25T13:54:54.970Z,19.77
2023-01-25T13:57:35.239Z,19.58
2023-01-25T14:00:12.799Z,22.88
2023-01-25T14:03:07.904Z,19.98
2023-01-25T14:05:37.252Z,25.05
2023-01-25T14:08:12.307Z,19.98
2023-01-25T14:10:52.376Z,22.08
2023-01-25T14:13:23.711Z,20.42
2023-01-25T14:16:07.540Z,21.70
2023-01-25T14:18:48.477Z,20.50
2023-01-25T14:21:19.573Z,19.80
2023-01-25T14:23:53.971Z,21.73
2023-01-25T14:26:26.605Z,19.23
2023-01-25T14:29:01.883Z,26.73
2023-01-25T14:31:34.969Z,24.52
2023-01-25T14:34:12.723Z,26.88
2023-01-25T14:36:44.245Z,26.25
2023-01-25T14:39:17.487Z,31.13
2023-01-25T14:42:00.486Z,18.52
2023-01-25T14:44:31.875Z,19.65
2023-01-25T14:47:19.870Z,22.55
2023-01-25T14:49:49.452Z,17.38
2023-01-25T14:52:20.548Z,17.80
2023-01-25T14:54:55.453Z,19.20
2023-01-25T14:57:40.721Z,16.45
2023-01-25T15:00:23.789Z,25.70
2023-01-25T15:03:02.621Z,21.02
2023-01-25T15:05:33.185Z,20.20
2023-01-25T15:08:16.829Z,18.23
2023-01-25T15:10:56.758Z,16.50
2023-01-25T15:13:27.554Z,18.27
2023-01-25T15:15:59.056Z,21.40
2023-01-25T15:18:48.399Z,19.05
2023-01-25T15:21:18.513Z,19.20
2023-01-25T15:23:48.723Z,15.02
2023-01-25T15:26:24.941Z,14.48
2023-01-25T15:28:58.236Z,17.40
2023-01-25T15:31:33.769Z,9.82
2023-01-25T15:34:03.526Z,13.02
2023-01-25T15:36:36.997Z,11.32
2023-01-25T15:39:06.830Z,14.13
2023-01-25T15:41:36.009Z,13.82
2023-01-25T15:44:05.820Z,13.68
2023-01-25T15:46:37.797Z,12.10
2023-01-25T15:49:09.371Z,14.38
2023-01-25T15:51:38.772Z,12.60
2023-01-25T15:54:13.188Z,16.33
2023-01-25T15:56:43.509Z,13.90
2023-01-25T15:59:17.451Z,13.15
2023-01-25T16:01:50.424Z,15.20
2023-01-25T16:04:20.145Z,12.38
2023-01-25T16:06:52.446Z,12.75
2023-01-25T16:09:22.912Z,14.27
2023-01-25T16:11:53.593Z,17.30
2023-01-25T16:14:26.618Z,16.23
2023-01-25T16:17:03.961Z,15.73
2023-01-25T16:19:34.651Z,14.80
2023-01-25T16:22:04.416Z,14.90
2023-01-25T16:24:33.939Z,14.13
2023-01-25T16:27:03.418Z,12.23
2023-01-25T16:29:32.857Z,18.45
2023-01-25T16:32:03.709Z,14.93
2023-01-25T16:34:33.374Z,18.05
2023-01-25T16:37:03.302Z,21.63
2023-01-25T16:39:32.854Z,19.20
2023-01-25T16:42:02.422Z,13.52
2023-01-25T16:44:31.807Z,16.90
2023-01-25T16:47:01.386Z,17.70
2023-01-25T16:49:33.438Z,17.52
2023-01-25T16:52:04.195Z,16.23
2023-01-25T16:54:33.648Z,15.38
2023-01-25T16:57:19.894Z,14.52
2023-01-25T16:59:49.737Z,16.58
2023-01-25T17:02:19.321Z,17.83
2023-01-25T17:04:50.346Z,12.00
2023-01-25T17:07:23.206Z,18.00
2023-01-25T17:09:54.784Z,15.82
2023-01-25T17:12:24.537Z,19.45
2023-01-25T17:14:54.176Z,16.95
2023-01-25T17:17:24.119Z,16.63
2023-01-25T17:19:56.944Z,18.33
2023-01-25T17:22:35.050Z,17.38
2023-01-25T17:25:05.184Z,21.85
2023-01-25T17:27:36.698Z,20.95
2023-01-25T17:30:06.394Z,18.23
2023-01-25T17:32:36.099Z,20.92
2023-01-25T17:35:09.749Z,20.05
2023-01-25T17:37:41.122Z,20.65
2023-01-25T17:40:11.627Z,23.35
2023-01-25T17:42:46.729Z,21.50
2023-01-25T17:45:16.183Z,20.23
2023-01-25T17:47:47.275Z,20.92
2023-01-25T17:50:26.788Z,20.90
2023-01-25T17:53:00.749Z,22.33
2023-01-25T17:55:35.158Z,22.90
2023-01-25T17:58:04.984Z,21.25
2023-01-25T18:00:35.099Z,23.40
2023-01-25T18:03:04.549Z,24.13
2023-01-25T18:05:35.527Z,21.17
2023-01-25T18:08:06.407Z,25.80
2023-01-25T18:10:38.769Z,26.60
2023-01-25T18:13:08.471Z,26.58
2023-01-25T18:15:38.019Z,26.60
2023-01-25T18:18:08.683Z,24.30
2023-01-25T18:20:39.853Z,26.55
2023-01-25T18:23:09.670Z,28.90
2023-01-25T18:25:40.084Z,23.10
2023-01-25T18:28:09.870Z,26.10
2023-01-25T18:30:41.603Z,24.23
2023-01-25T18:33:11.258Z,26.42
2023-01-25T18:35:43.756Z,26.17
2023-01-25T18:38:15.413Z,24.73
2023-01-25T18:43:16.731Z,26.80
2023-01-25T18:45:55.702Z,28.20
2023-01-25T18:48:30.352Z,27.15
2023-01-25T18:51:02.374Z,29.92
2023-01-25T18:53:33.001Z,31.85
2023-01-25T18:56:03.553Z,34.05
2023-01-25T18:58:34.385Z,30.45
2023-01-25T19:01:05.753Z,29.80
2023-01-25T19:03:35.348Z,30.35
2023-01-25T19:06:09.271Z,31.00
2023-01-25T19:08:41.564Z,29.73
2023-01-25T19:11:12.149Z,32.15
2023-01-25T19:13:43.120Z,36.55
2023-01-25T19:16:14.571Z,32.42
2023-01-25T19:18:47.021Z,29.50
2023-01-25T19:21:19.521Z,31.08
2023-01-25T19:23:49.829Z,28.98
2023-01-25T19:26:20.343Z,30.10
2023-01-25T19:28:50.252Z,29.63
2023-01-25T19:31:20.779Z,31.08
2023-01-25T19:33:50.942Z,27.13
2023-01-25T19:36:25.273Z,29.27
2023-01-25T19:38:57.176Z,28.50
2023-01-25T19:41:29.984Z,27.45
2023-01-25T19:44:00.693Z,23.98
2023-01-25T19:46:31.570Z,23.07
2023-01-25T19:49:02.139Z,29.52
2023-01-25T19:51:36.989Z,23.17
2023-01-25T19:54:09.205Z,26.23
2023-01-25T19:56:43.957Z,20.50
2023-01-25T19:59:17.069Z,19.73
2023-01-25T20:01:47.485Z,21.42
2023-01-25T20:04:19.987Z,23.55
2023-01-25T20:06:54.249Z,19.45
2023-01-25T20:09:28.172Z,20.98
2023-01-25T20:12:00.775Z,24.73
2023-01-25T20:14:30.176Z,21.05
2023-01-25T20:16:59.643Z,20.27
2023-01-25T20:19:29.600Z,22.70
2023-01-25T20:22:02.175Z,20.17
2023-01-25T20:24:32.264Z,22.80
2023-01-25T20:27:04.242Z,24.30
2023-01-25T20:29:35.924Z,24.35
2023-01-25T20:32:06.225Z,17.38
2023-01-25T20:34:35.440Z,18.45
2023-01-25T20:37:06.608Z,20.17
2023-01-25T20:39:36.102Z,21.05
2023-01-25T20:42:06.017Z,19.25
2023-01-25T20:44:35.667Z,23.88
2023-01-25T20:47:08.011Z,20.45
2023-01-25T20:49:38.412Z,24.42
2023-01-25T20:52:12.937Z,20.92
2023-01-25T20:54:43.309Z,24.95
2023-01-25T20:57:12.707Z,24.23
2023-01-25T20:59:43.140Z,24.73
2023-01-25T21:02:13.622Z,23.38
2023-01-25T21:04:49.713Z,25.10
2023-01-25T21:07:24.870Z,23.10
2023-01-25T21:09:54.004Z,21.27
2023-01-25T21:12:23.925Z,25.52
2023-01-25T21:14:53.608Z,22.40
2023-01-25T21:17:23.169Z,26.27
2023-01-25T21:19:52.639Z,20.35
2023-01-25T21:22:24.582Z,21.63
2023-01-25T21:24:55.651Z,22.65
2023-01-25T21:27:29.642Z,21.65
2023-01-25T21:30:00.147Z,25.30
2023-01-25T21:32:31.419Z,22.63
2023-01-25T21:35:00.881Z,22.40
2023-01-25T21:37:32.416Z,25.75
2023-01-25T21:40:02.407Z,21.38
2023-01-25T21:42:32.511Z,20.77
2023-01-25T21:45:33.226Z,21.10
2023-01-25T21:48:05.412Z,21.40
2023-01-25T21:50:59.392Z,20.20
2023-01-25T21:56:29.845Z,20.67
2023-01-25T21:59:00.353Z,21.45
2023-01-25T22:01:33.343Z,21.35
2023-01-25T22:04:19.438Z,21.77
2023-01-25T22:06:51.179Z,21.55
2023-01-25T22:09:44.747Z,17.23
2023-01-25T22:12:47.104Z,21.77
2023-01-25T22:15:16.671Z,22.50
2023-01-25T22:17:47.037Z,17.63
2023-01-25T22:20:23.331Z,17.48
2023-01-25T22:22:54.524Z,20.48
2023-01-25T22:25:37.430Z,20.85
2023-01-25T22:30:37.416Z,16.55
2023-01-25T22:33:07.849Z,19.48
2023-01-25T22:35:38.273Z,20.60
2023-01-25T22:38:10.386Z,21.13
2023-01-25T22:40:41.300Z,17.35
2023-01-25T22:43:14.169Z,17.98
2023-01-25T22:45:53.840Z,26.08
2023-01-25T22:48:23.446Z,17.70
2023-01-25T22:50:52.860Z,16.38
2023-01-25T22:53:22.411Z,18.98
2023-01-25T22:55:56.178Z,16.13
2023-01-25T22:58:25.660Z,21.85
2023-01-25T23:00:58.631Z,15.95
2023-01-25T23:03:28.374Z,11.77
2023-01-25T23:06:03.266Z,15.20
2023-01-25T23:08:35.973Z,13.05
2023-01-25T23:11:09.805Z,18.00
2023-01-25T23:13:42.697Z,14.60
2023-01-25T23:16:12.348Z,14.07
2023-01-25T23:18:52.898Z,12.25
2023-01-25T23:21:23.747Z,10.43
2023-01-25T23:23:53.725Z,10.27
2023-01-25T23:26:25.058Z,10.98
2023-01-25T23:28:56.788Z,13.90
2023-01-25T23:34:01.262Z,7.93
2023-01-25T23:36:32.200Z,7.63
2023-01-25T23:39:02.620Z,6.07
2023-01-25T23:41:33.588Z,6.53
2023-01-25T23:44:03.725Z,13.35
2023-01-25T23:46:35.839Z,6.00
2023-01-25T23:49:05.746Z,8.98
2023-01-25T23:51:35.222Z,3.30
2023-01-25T23:54:06.704Z,6.90
2023-01-25T23:56:37.879Z,2.90
2023-01-25T23:59:07.972Z,5.45
